sensor_id;sensor_type;location;lat;lon;timestamp;P1;durP1;ratioP1;P2;durP2;ratioP2
18200;SDS011;9226;47.858;9.594;2023-01-10T00:00:34;2.20;;;1.40;;
18200;SDS011;9226;47.858;9.594;2023-01-10T00:03:01;3.43;;;1.27;;
18200;SDS011;9226;47.858;9.594;2023-01-10T00:05:28;6.73;;;1.20;;
18200;SDS011;9226;47.858;9.594;2023-01-10T00:07:53;1.87;;;1.20;;
18200;SDS011;9226;47.858;9.594;2023-01-10T00:10:19;1.97;;;1.27;;
18200;SDS011;9226;47.858;9.594;2023-01-10T00:12:45;2.00;;;1.30;;
18200;SDS011;9226;47.858;9.594;2023-01-10T00:15:31;3.53;;;1.10;;
18200;SDS011;9226;47.858;9.594;2023-01-10T00:17:57;4.43;;;1.20;;
18200;SDS011;9226;47.858;9.594;2023-01-10T00:20:22;3.27;;;1.00;;
18200;SDS011;9226;47.858;9.594;2023-01-10T00:22:47;1.73;;;1.20;;
18200;SDS011;9226;47.858;9.594;2023-01-10T00:25:14;1.67;;;1.10;;
18200;SDS011;9226;47.858;9.594;2023-01-10T00:27:40;1.70;;;1.17;;
18200;SDS011;9226;47.858;9.594;2023-01-10T00:30:06;2.70;;;1.10;;
18200;SDS011;9226;47.858;9.594;2023-01-10T00:32:38;3.93;;;1.13;;
18200;SDS011;9226;47.858;9.594;2023-01-10T00:35:08;1.53;;;1.10;;
18200;SDS011;9226;47.858;9.594;2023-01-10T00:37:34;1.50;;;1.10;;
18200;SDS011;9226;47.858;9.594;2023-01-10T00:40:00;1.53;;;1.00;;
18200;SDS011;9226;47.858;9.594;2023-01-10T00:42:26;1.80;;;1.03;;
18200;SDS011;9226;47.858;9.594;2023-01-10T00:45:09;3.17;;;1.47;;
18200;SDS011;9226;47.858;9.594;2023-01-10T00:47:36;1.33;;;1.10;;
18200;SDS011;9226;47.858;9.594;2023-01-10T00:50:02;4.63;;;1.00;;
18200;SDS011;9226;47.858;9.594;2023-01-10T00:52:30;1.03;;;0.90;;
18200;SDS011;9226;47.858;9.594;2023-01-10T00:54:55;1.93;;;1.30;;
18200;SDS011;9226;47.858;9.594;2023-01-10T00:57:21;1.20;;;1.00;;
18200;SDS011;9226;47.858;9.594;2023-01-10T00:59:46;1.90;;;1.13;;
18200;SDS011;9226;47.858;9.594;2023-01-10T01:02:11;1.37;;;1.00;;
18200;SDS011;9226;47.858;9.594;2023-01-10T01:04:37;1.43;;;1.10;;
18200;SDS011;9226;47.858;9.594;2023-01-10T01:07:02;1.17;;;1.00;;
18200;SDS011;9226;47.858;9.594;2023-01-10T01:09:28;0.80;;;0.73;;
18200;SDS011;9226;47.858;9.594;2023-01-10T01:11:54;2.53;;;1.00;;
18200;SDS011;9226;47.858;9.594;2023-01-10T01:14:21;2.50;;;1.10;;
18200;SDS011;9226;47.858;9.594;2023-01-10T01:16:47;1.13;;;0.90;;
18200;SDS011;9226;47.858;9.594;2023-01-10T01:19:12;1.03;;;0.83;;
18200;SDS011;9226;47.858;9.594;2023-01-10T01:21:38;1.10;;;0.90;;
18200;SDS011;9226;47.858;9.594;2023-01-10T01:24:03;1.00;;;0.90;;
18200;SDS011;9226;47.858;9.594;2023-01-10T01:26:29;2.00;;;0.97;;
18200;SDS011;9226;47.858;9.594;2023-01-10T01:28:54;1.20;;;0.97;;
18200;SDS011;9226;47.858;9.594;2023-01-10T01:31:20;1.20;;;0.93;;
18200;SDS011;9226;47.858;9.594;2023-01-10T01:33:45;1.50;;;0.97;;
18200;SDS011;9226;47.858;9.594;2023-01-10T01:36:11;1.23;;;1.00;;
18200;SDS011;9226;47.858;9.594;2023-01-10T01:38:37;2.53;;;1.00;;
18200;SDS011;9226;47.858;9.594;2023-01-10T01:41:04;1.33;;;0.90;;
18200;SDS011;9226;47.858;9.594;2023-01-10T01:46:24;2.00;;;0.60;;
18200;SDS011;9226;47.858;9.594;2023-01-10T01:48:50;1.17;;;0.83;;
18200;SDS011;9226;47.858;9.594;2023-01-10T01:51:16;0.80;;;0.80;;
18200;SDS011;9226;47.858;9.594;2023-01-10T01:59:01;0.90;;;0.70;;
18200;SDS011;9226;47.858;9.594;2023-01-10T02:01:34;2.00;;;1.00;;
18200;SDS011;9226;47.858;9.594;2023-01-10T02:04:06;0.90;;;0.90;;
18200;SDS011;9226;47.858;9.594;2023-01-10T02:06:35;1.00;;;0.90;;
18200;SDS011;9226;47.858;9.594;2023-01-10T02:09:07;1.97;;;1.00;;
18200;SDS011;9226;47.858;9.594;2023-01-10T02:11:42;1.10;;;0.90;;
18200;SDS011;9226;47.858;9.594;2023-01-10T02:14:08;1.00;;;0.70;;
18200;SDS011;9226;47.858;9.594;2023-01-10T02:16:36;1.53;;;0.80;;
18200;SDS011;9226;47.858;9.594;2023-01-10T02:19:01;1.03;;;0.80;;
18200;SDS011;9226;47.858;9.594;2023-01-10T02:24:21;1.37;;;0.80;;
18200;SDS011;9226;47.858;9.594;2023-01-10T02:30:05;1.43;;;0.80;;
18200;SDS011;9226;47.858;9.594;2023-01-10T02:41:12;0.83;;;0.80;;
18200;SDS011;9226;47.858;9.594;2023-01-10T02:43:50;1.77;;;1.10;;
18200;SDS011;9226;47.858;9.594;2023-01-10T02:46:21;1.40;;;1.00;;
18200;SDS011;9226;47.858;9.594;2023-01-10T02:48:51;1.17;;;0.83;;
18200;SDS011;9226;47.858;9.594;2023-01-10T02:51:19;1.40;;;1.00;;
18200;SDS011;9226;47.858;9.594;2023-01-10T02:53:54;0.70;;;0.70;;
18200;SDS011;9226;47.858;9.594;2023-01-10T03:12:50;1.53;;;1.00;;
18200;SDS011;9226;47.858;9.594;2023-01-10T03:15:21;2.20;;;1.00;;
18200;SDS011;9226;47.858;9.594;2023-01-10T03:17:49;3.23;;;1.00;;
18200;SDS011;9226;47.858;9.594;2023-01-10T03:20:18;0.70;;;0.70;;
18200;SDS011;9226;47.858;9.594;2023-01-10T03:22:46;2.87;;;0.70;;
18200;SDS011;9226;47.858;9.594;2023-01-10T03:25:12;1.40;;;0.80;;
18200;SDS011;9226;47.858;9.594;2023-01-10T03:30:27;2.27;;;0.70;;
18200;SDS011;9226;47.858;9.594;2023-01-10T03:33:03;2.53;;;1.00;;
18200;SDS011;9226;47.858;9.594;2023-01-10T03:35:50;1.00;;;0.80;;
18200;SDS011;9226;47.858;9.594;2023-01-10T03:38:51;1.00;;;0.80;;
18200;SDS011;9226;47.858;9.594;2023-01-10T03:41:41;3.83;;;1.10;;
18200;SDS011;9226;47.858;9.594;2023-01-10T03:44:11;1.40;;;0.87;;
18200;SDS011;9226;47.858;9.594;2023-01-10T03:47:11;2.23;;;1.10;;
18200;SDS011;9226;47.858;9.594;2023-01-10T03:49:55;2.43;;;1.20;;
18200;SDS011;9226;47.858;9.594;2023-01-10T03:52:23;1.40;;;1.00;;
18200;SDS011;9226;47.858;9.594;2023-01-10T03:54:50;3.33;;;1.10;;
18200;SDS011;9226;47.858;9.594;2023-01-10T03:57:20;1.50;;;1.10;;
18200;SDS011;9226;47.858;9.594;2023-01-10T03:59:47;1.50;;;1.10;;
18200;SDS011;9226;47.858;9.594;2023-01-10T04:02:16;2.63;;;1.13;;
18200;SDS011;9226;47.858;9.594;2023-01-10T04:04:42;2.50;;;1.13;;
18200;SDS011;9226;47.858;9.594;2023-01-10T04:07:07;1.10;;;0.90;;
18200;SDS011;9226;47.858;9.594;2023-01-10T04:09:32;1.50;;;1.10;;
18200;SDS011;9226;47.858;9.594;2023-01-10T04:11:58;2.33;;;1.10;;
18200;SDS011;9226;47.858;9.594;2023-01-10T04:14:23;2.50;;;1.00;;
18200;SDS011;9226;47.858;9.594;2023-01-10T04:16:49;1.00;;;0.80;;
18200;SDS011;9226;47.858;9.594;2023-01-10T04:19:14;3.07;;;1.20;;
18200;SDS011;9226;47.858;9.594;2023-01-10T04:21:40;1.10;;;0.93;;
18200;SDS011;9226;47.858;9.594;2023-01-10T04:24:05;0.97;;;0.90;;
18200;SDS011;9226;47.858;9.594;2023-01-10T04:26:31;1.43;;;0.87;;
18200;SDS011;9226;47.858;9.594;2023-01-10T04:28:56;1.30;;;0.80;;
18200;SDS011;9226;47.858;9.594;2023-01-10T04:31:22;0.70;;;0.60;;
18200;SDS011;9226;47.858;9.594;2023-01-10T04:33:47;1.13;;;0.90;;
18200;SDS011;9226;47.858;9.594;2023-01-10T04:36:13;2.10;;;0.80;;
18200;SDS011;9226;47.858;9.594;2023-01-10T04:38:38;0.90;;;0.77;;
18200;SDS011;9226;47.858;9.594;2023-01-10T04:41:03;1.43;;;1.00;;
18200;SDS011;9226;47.858;9.594;2023-01-10T04:43:29;0.70;;;0.50;;
18200;SDS011;9226;47.858;9.594;2023-01-10T04:45:54;0.60;;;0.60;;
18200;SDS011;9226;47.858;9.594;2023-01-10T04:48:20;0.60;;;0.60;;
18200;SDS011;9226;47.858;9.594;2023-01-10T04:50:52;0.50;;;0.50;;
18200;SDS011;9226;47.858;9.594;2023-01-10T04:53:18;0.77;;;0.60;;
18200;SDS011;9226;47.858;9.594;2023-01-10T04:55:44;0.50;;;0.50;;
18200;SDS011;9226;47.858;9.594;2023-01-10T04:58:10;0.63;;;0.50;;
18200;SDS011;9226;47.858;9.594;2023-01-10T05:00:35;0.90;;;0.60;;
18200;SDS011;9226;47.858;9.594;2023-01-10T05:03:01;2.17;;;1.00;;
18200;SDS011;9226;47.858;9.594;2023-01-10T05:05:27;2.63;;;1.10;;
18200;SDS011;9226;47.858;9.594;2023-01-10T05:07:53;1.87;;;0.80;;
18200;SDS011;9226;47.858;9.594;2023-01-10T05:10:18;3.40;;;1.20;;
18200;SDS011;9226;47.858;9.594;2023-01-10T05:12:44;5.13;;;1.10;;
18200;SDS011;9226;47.858;9.594;2023-01-10T05:15:10;0.93;;;0.83;;
18200;SDS011;9226;47.858;9.594;2023-01-10T05:17:36;4.27;;;1.07;;
18200;SDS011;9226;47.858;9.594;2023-01-10T05:20:02;3.40;;;0.83;;
18200;SDS011;9226;47.858;9.594;2023-01-10T05:22:28;1.93;;;0.80;;
18200;SDS011;9226;47.858;9.594;2023-01-10T05:24:53;1.50;;;0.80;;
18200;SDS011;9226;47.858;9.594;2023-01-10T05:27:19;1.93;;;0.90;;
18200;SDS011;9226;47.858;9.594;2023-01-10T05:29:44;1.77;;;0.93;;
18200;SDS011;9226;47.858;9.594;2023-01-10T05:32:09;1.50;;;0.70;;
18200;SDS011;9226;47.858;9.594;2023-01-10T05:34:35;3.03;;;0.90;;
18200;SDS011;9226;47.858;9.594;2023-01-10T05:37:00;5.57;;;1.23;;
18200;SDS011;9226;47.858;9.594;2023-01-10T05:39:26;2.60;;;1.20;;
18200;SDS011;9226;47.858;9.594;2023-01-10T05:41:51;4.20;;;0.90;;
18200;SDS011;9226;47.858;9.594;2023-01-10T05:44:17;4.43;;;1.00;;
18200;SDS011;9226;47.858;9.594;2023-01-10T05:46:42;2.60;;;1.30;;
18200;SDS011;9226;47.858;9.594;2023-01-10T05:49:07;5.63;;;1.43;;
18200;SDS011;9226;47.858;9.594;2023-01-10T05:51:33;6.00;;;1.00;;
18200;SDS011;9226;47.858;9.594;2023-01-10T05:53:59;4.87;;;1.07;;
18200;SDS011;9226;47.858;9.594;2023-01-10T05:56:24;1.73;;;1.10;;
18200;SDS011;9226;47.858;9.594;2023-01-10T05:58:50;4.77;;;1.17;;
18200;SDS011;9226;47.858;9.594;2023-01-10T06:01:15;2.27;;;1.00;;
18200;SDS011;9226;47.858;9.594;2023-01-10T06:03:41;1.67;;;0.80;;
18200;SDS011;9226;47.858;9.594;2023-01-10T06:06:07;1.77;;;0.83;;
18200;SDS011;9226;47.858;9.594;2023-01-10T06:08:33;2.80;;;1.30;;
18200;SDS011;9226;47.858;9.594;2023-01-10T06:11:00;3.97;;;1.23;;
18200;SDS011;9226;47.858;9.594;2023-01-10T06:13:27;1.80;;;1.10;;
18200;SDS011;9226;47.858;9.594;2023-01-10T06:15:52;3.67;;;1.30;;
18200;SDS011;9226;47.858;9.594;2023-01-10T06:18:17;3.57;;;1.33;;
18200;SDS011;9226;47.858;9.594;2023-01-10T06:20:43;5.90;;;1.83;;
18200;SDS011;9226;47.858;9.594;2023-01-10T06:23:08;4.23;;;1.40;;
18200;SDS011;9226;47.858;9.594;2023-01-10T06:25:35;6.07;;;1.30;;
18200;SDS011;9226;47.858;9.594;2023-01-10T06:28:04;4.17;;;1.27;;
18200;SDS011;9226;47.858;9.594;2023-01-10T06:30:30;3.17;;;1.30;;
18200;SDS011;9226;47.858;9.594;2023-01-10T06:33:04;3.97;;;1.30;;
18200;SDS011;9226;47.858;9.594;2023-01-10T06:35:31;2.07;;;1.27;;
18200;SDS011;9226;47.858;9.594;2023-01-10T06:37:57;7.67;;;1.30;;
18200;SDS011;9226;47.858;9.594;2023-01-10T06:40:23;4.17;;;1.37;;
18200;SDS011;9226;47.858;9.594;2023-01-10T06:42:49;3.10;;;1.37;;
18200;SDS011;9226;47.858;9.594;2023-01-10T06:45:15;4.80;;;1.10;;
18200;SDS011;9226;47.858;9.594;2023-01-10T06:47:40;7.40;;;2.43;;
18200;SDS011;9226;47.858;9.594;2023-01-10T06:50:06;5.70;;;1.50;;
18200;SDS011;9226;47.858;9.594;2023-01-10T06:52:32;6.17;;;1.50;;
18200;SDS011;9226;47.858;9.594;2023-01-10T06:54:58;4.63;;;1.60;;
18200;SDS011;9226;47.858;9.594;2023-01-10T06:57:23;3.60;;;1.33;;
18200;SDS011;9226;47.858;9.594;2023-01-10T06:59:49;4.37;;;1.10;;
18200;SDS011;9226;47.858;9.594;2023-01-10T07:02:14;8.87;;;1.60;;
18200;SDS011;9226;47.858;9.594;2023-01-10T07:04:39;3.77;;;1.47;;
18200;SDS011;9226;47.858;9.594;2023-01-10T07:07:05;3.93;;;1.23;;
18200;SDS011;9226;47.858;9.594;2023-01-10T07:09:31;2.87;;;1.37;;
18200;SDS011;9226;47.858;9.594;2023-01-10T07:11:56;5.77;;;1.30;;
18200;SDS011;9226;47.858;9.594;2023-01-10T07:14:21;2.57;;;1.50;;
18200;SDS011;9226;47.858;9.594;2023-01-10T07:16:47;6.83;;;1.33;;
18200;SDS011;9226;47.858;9.594;2023-01-10T07:19:13;4.27;;;1.40;;
18200;SDS011;9226;47.858;9.594;2023-01-10T07:21:38;5.30;;;1.30;;
18200;SDS011;9226;47.858;9.594;2023-01-10T07:24:04;5.47;;;1.47;;
18200;SDS011;9226;47.858;9.594;2023-01-10T07:26:30;8.40;;;1.37;;
18200;SDS011;9226;47.858;9.594;2023-01-10T07:28:55;18.23;;;1.63;;
18200;SDS011;9226;47.858;9.594;2023-01-10T07:31:21;7.67;;;1.60;;
18200;SDS011;9226;47.858;9.594;2023-01-10T07:33:47;4.27;;;1.57;;
18200;SDS011;9226;47.858;9.594;2023-01-10T07:36:14;6.67;;;1.37;;
18200;SDS011;9226;47.858;9.594;2023-01-10T07:38:40;6.17;;;1.47;;
18200;SDS011;9226;47.858;9.594;2023-01-10T07:41:05;2.83;;;1.30;;
18200;SDS011;9226;47.858;9.594;2023-01-10T07:43:31;3.73;;;1.60;;
18200;SDS011;9226;47.858;9.594;2023-01-10T07:45:57;3.37;;;1.50;;
18200;SDS011;9226;47.858;9.594;2023-01-10T07:48:24;8.37;;;1.50;;
18200;SDS011;9226;47.858;9.594;2023-01-10T07:50:53;2.83;;;1.47;;
18200;SDS011;9226;47.858;9.594;2023-01-10T07:53:19;2.30;;;1.43;;
18200;SDS011;9226;47.858;9.594;2023-01-10T07:55:45;4.37;;;1.50;;
18200;SDS011;9226;47.858;9.594;2023-01-10T07:58:10;7.50;;;1.60;;
18200;SDS011;9226;47.858;9.594;2023-01-10T08:00:36;4.27;;;1.53;;
18200;SDS011;9226;47.858;9.594;2023-01-10T08:03:01;6.40;;;1.60;;
18200;SDS011;9226;47.858;9.594;2023-01-10T08:05:27;3.03;;;1.23;;
18200;SDS011;9226;47.858;9.594;2023-01-10T08:07:52;5.07;;;1.47;;
18200;SDS011;9226;47.858;9.594;2023-01-10T08:10:20;4.93;;;1.80;;
18200;SDS011;9226;47.858;9.594;2023-01-10T08:12:45;5.60;;;1.57;;
18200;SDS011;9226;47.858;9.594;2023-01-10T08:15:13;5.03;;;1.30;;
18200;SDS011;9226;47.858;9.594;2023-01-10T08:17:39;4.33;;;1.53;;
18200;SDS011;9226;47.858;9.594;2023-01-10T08:20:04;8.70;;;1.50;;
18200;SDS011;9226;47.858;9.594;2023-01-10T08:22:30;1.87;;;1.20;;
18200;SDS011;9226;47.858;9.594;2023-01-10T08:24:56;8.50;;;1.30;;
18200;SDS011;9226;47.858;9.594;2023-01-10T08:27:21;6.43;;;1.63;;
18200;SDS011;9226;47.858;9.594;2023-01-10T08:29:46;2.70;;;1.47;;
18200;SDS011;9226;47.858;9.594;2023-01-10T08:32:12;5.80;;;1.53;;
18200;SDS011;9226;47.858;9.594;2023-01-10T08:34:37;3.23;;;1.60;;
18200;SDS011;9226;47.858;9.594;2023-01-10T08:37:03;6.47;;;1.80;;
18200;SDS011;9226;47.858;9.594;2023-01-10T08:39:28;3.10;;;1.57;;
18200;SDS011;9226;47.858;9.594;2023-01-10T08:41:59;5.67;;;1.60;;
18200;SDS011;9226;47.858;9.594;2023-01-10T08:44:24;5.23;;;1.47;;
18200;SDS011;9226;47.858;9.594;2023-01-10T08:46:50;6.67;;;1.83;;
18200;SDS011;9226;47.858;9.594;2023-01-10T08:49:16;7.63;;;1.90;;
18200;SDS011;9226;47.858;9.594;2023-01-10T08:51:41;8.10;;;1.60;;
18200;SDS011;9226;47.858;9.594;2023-01-10T08:54:08;6.93;;;1.93;;
18200;SDS011;9226;47.858;9.594;2023-01-10T08:56:34;9.93;;;2.03;;
18200;SDS011;9226;47.858;9.594;2023-01-10T08:59:01;4.07;;;1.60;;
18200;SDS011;9226;47.858;9.594;2023-01-10T09:01:27;4.43;;;1.63;;
18200;SDS011;9226;47.858;9.594;2023-01-10T09:03:52;3.87;;;1.70;;
18200;SDS011;9226;47.858;9.594;2023-01-10T09:06:18;5.77;;;2.03;;
18200;SDS011;9226;47.858;9.594;2023-01-10T09:08:43;3.87;;;2.07;;
18200;SDS011;9226;47.858;9.594;2023-01-10T09:11:08;4.13;;;1.67;;
18200;SDS011;9226;47.858;9.594;2023-01-10T09:13:34;6.50;;;1.50;;
18200;SDS011;9226;47.858;9.594;2023-01-10T09:15:59;6.63;;;1.70;;
18200;SDS011;9226;47.858;9.594;2023-01-10T09:18:25;4.63;;;1.33;;
18200;SDS011;9226;47.858;9.594;2023-01-10T09:20:51;7.73;;;1.57;;
18200;SDS011;9226;47.858;9.594;2023-01-10T09:23:18;8.90;;;1.70;;
18200;SDS011;9226;47.858;9.594;2023-01-10T09:25:45;4.50;;;1.40;;
18200;SDS011;9226;47.858;9.594;2023-01-10T09:28:11;4.63;;;1.80;;
18200;SDS011;9226;47.858;9.594;2023-01-10T09:30:38;3.10;;;1.23;;
18200;SDS011;9226;47.858;9.594;2023-01-10T09:33:05;7.13;;;1.80;;
18200;SDS011;9226;47.858;9.594;2023-01-10T09:35:31;12.63;;;1.90;;
18200;SDS011;9226;47.858;9.594;2023-01-10T09:37:59;3.33;;;1.47;;
18200;SDS011;9226;47.858;9.594;2023-01-10T09:43:14;6.30;;;1.40;;
18200;SDS011;9226;47.858;9.594;2023-01-10T09:51:25;4.73;;;1.27;;
18200;SDS011;9226;47.858;9.594;2023-01-10T09:54:00;5.50;;;1.63;;
18200;SDS011;9226;47.858;9.594;2023-01-10T09:56:29;7.37;;;1.87;;
18200;SDS011;9226;47.858;9.594;2023-01-10T09:58:57;5.03;;;1.63;;
18200;SDS011;9226;47.858;9.594;2023-01-10T10:01:26;4.97;;;1.40;;
18200;SDS011;9226;47.858;9.594;2023-01-10T10:06:29;4.60;;;1.77;;
18200;SDS011;9226;47.858;9.594;2023-01-10T10:08:58;12.03;;;1.67;;
18200;SDS011;9226;47.858;9.594;2023-01-10T10:24:47;3.87;;;1.30;;
18200;SDS011;9226;47.858;9.594;2023-01-10T10:27:20;4.50;;;1.23;;
18200;SDS011;9226;47.858;9.594;2023-01-10T10:35:35;6.17;;;1.57;;
18200;SDS011;9226;47.858;9.594;2023-01-10T10:38:05;2.43;;;1.83;;
18200;SDS011;9226;47.858;9.594;2023-01-10T10:40:46;4.23;;;1.30;;
18200;SDS011;9226;47.858;9.594;2023-01-10T10:43:22;3.30;;;1.30;;
18200;SDS011;9226;47.858;9.594;2023-01-10T10:46:01;4.23;;;1.10;;
18200;SDS011;9226;47.858;9.594;2023-01-10T10:48:30;7.47;;;1.73;;
18200;SDS011;9226;47.858;9.594;2023-01-10T10:51:07;4.73;;;1.10;;
18200;SDS011;9226;47.858;9.594;2023-01-10T10:53:38;2.20;;;1.30;;
18200;SDS011;9226;47.858;9.594;2023-01-10T10:56:04;4.73;;;1.07;;
18200;SDS011;9226;47.858;9.594;2023-01-10T10:58:33;4.17;;;1.30;;
18200;SDS011;9226;47.858;9.594;2023-01-10T11:01:00;6.23;;;1.20;;
18200;SDS011;9226;47.858;9.594;2023-01-10T11:06:34;4.13;;;1.40;;
18200;SDS011;9226;47.858;9.594;2023-01-10T11:09:03;6.73;;;1.20;;
18200;SDS011;9226;47.858;9.594;2023-01-10T11:11:33;7.77;;;1.97;;
18200;SDS011;9226;47.858;9.594;2023-01-10T11:14:08;3.13;;;1.10;;
18200;SDS011;9226;47.858;9.594;2023-01-10T11:16:37;6.23;;;1.43;;
18200;SDS011;9226;47.858;9.594;2023-01-10T11:19:08;4.77;;;1.30;;
18200;SDS011;9226;47.858;9.594;2023-01-10T11:21:34;2.53;;;1.00;;
18200;SDS011;9226;47.858;9.594;2023-01-10T11:24:00;7.60;;;1.37;;
18200;SDS011;9226;47.858;9.594;2023-01-10T11:26:29;4.23;;;1.20;;
18200;SDS011;9226;47.858;9.594;2023-01-10T11:31:55;7.93;;;1.33;;
18200;SDS011;9226;47.858;9.594;2023-01-10T11:34:27;7.97;;;1.50;;
18200;SDS011;9226;47.858;9.594;2023-01-10T11:39:28;4.07;;;1.23;;
18200;SDS011;9226;47.858;9.594;2023-01-10T11:41:55;4.30;;;1.20;;
18200;SDS011;9226;47.858;9.594;2023-01-10T11:44:27;4.40;;;1.13;;
18200;SDS011;9226;47.858;9.594;2023-01-10T11:47:11;4.73;;;1.00;;
18200;SDS011;9226;47.858;9.594;2023-01-10T11:49:39;3.13;;;1.23;;
18200;SDS011;9226;47.858;9.594;2023-01-10T11:54:47;4.13;;;1.30;;
18200;SDS011;9226;47.858;9.594;2023-01-10T11:57:23;5.93;;;1.17;;
18200;SDS011;9226;47.858;9.594;2023-01-10T11:59:54;7.43;;;1.20;;
18200;SDS011;9226;47.858;9.594;2023-01-10T12:02:26;4.30;;;1.07;;
18200;SDS011;9226;47.858;9.594;2023-01-10T12:04:55;1.70;;;0.90;;
18200;SDS011;9226;47.858;9.594;2023-01-10T12:07:23;5.17;;;1.97;;
18200;SDS011;9226;47.858;9.594;2023-01-10T12:12:22;2.50;;;1.23;;
18200;SDS011;9226;47.858;9.594;2023-01-10T12:14:50;3.20;;;0.77;;
18200;SDS011;9226;47.858;9.594;2023-01-10T12:19:49;4.20;;;1.00;;
18200;SDS011;9226;47.858;9.594;2023-01-10T12:22:17;4.07;;;1.13;;
18200;SDS011;9226;47.858;9.594;2023-01-10T12:24:45;10.00;;;1.70;;
18200;SDS011;9226;47.858;9.594;2023-01-10T12:27:14;6.27;;;1.03;;
18200;SDS011;9226;47.858;9.594;2023-01-10T12:29:43;4.27;;;0.90;;
18200;SDS011;9226;47.858;9.594;2023-01-10T12:32:18;5.77;;;1.33;;
18200;SDS011;9226;47.858;9.594;2023-01-10T12:34:48;5.77;;;1.00;;
18200;SDS011;9226;47.858;9.594;2023-01-10T12:43:26;4.30;;;1.00;;
18200;SDS011;9226;47.858;9.594;2023-01-10T12:46:13;2.17;;;1.00;;
18200;SDS011;9226;47.858;9.594;2023-01-10T12:51:45;6.73;;;1.00;;
18200;SDS011;9226;47.858;9.594;2023-01-10T12:54:15;2.63;;;1.00;;
18200;SDS011;9226;47.858;9.594;2023-01-10T12:56:45;3.43;;;1.40;;
18200;SDS011;9226;47.858;9.594;2023-01-10T13:02:20;4.43;;;1.43;;
18200;SDS011;9226;47.858;9.594;2023-01-10T13:04:50;4.77;;;1.13;;
18200;SDS011;9226;47.858;9.594;2023-01-10T13:07:20;3.50;;;0.90;;
18200;SDS011;9226;47.858;9.594;2023-01-10T13:09:47;11.70;;;2.40;;
18200;SDS011;9226;47.858;9.594;2023-01-10T13:12:15;13.17;;;1.60;;
18200;SDS011;9226;47.858;9.594;2023-01-10T13:18:13;1.57;;;0.80;;
18200;SDS011;9226;47.858;9.594;2023-01-10T13:20:50;4.03;;;0.77;;
18200;SDS011;9226;47.858;9.594;2023-01-10T13:23:28;6.93;;;1.10;;
18200;SDS011;9226;47.858;9.594;2023-01-10T13:26:01;8.43;;;0.90;;
18200;SDS011;9226;47.858;9.594;2023-01-10T13:28:29;5.83;;;1.17;;
18200;SDS011;9226;47.858;9.594;2023-01-10T13:30:58;5.20;;;0.90;;
18200;SDS011;9226;47.858;9.594;2023-01-10T13:33:30;3.20;;;1.00;;
18200;SDS011;9226;47.858;9.594;2023-01-10T13:36:09;5.67;;;1.33;;
18200;SDS011;9226;47.858;9.594;2023-01-10T13:38:46;7.73;;;0.93;;
18200;SDS011;9226;47.858;9.594;2023-01-10T13:41:15;4.70;;;0.97;;
18200;SDS011;9226;47.858;9.594;2023-01-10T13:44:04;2.47;;;0.90;;
18200;SDS011;9226;47.858;9.594;2023-01-10T13:46:47;2.63;;;0.87;;
18200;SDS011;9226;47.858;9.594;2023-01-10T13:49:22;7.17;;;1.10;;
18200;SDS011;9226;47.858;9.594;2023-01-10T13:54:57;5.03;;;1.07;;
18200;SDS011;9226;47.858;9.594;2023-01-10T14:00:25;1.53;;;0.87;;
18200;SDS011;9226;47.858;9.594;2023-01-10T14:08:58;5.77;;;1.50;;
18200;SDS011;9226;47.858;9.594;2023-01-10T14:11:32;2.43;;;1.00;;
18200;SDS011;9226;47.858;9.594;2023-01-10T14:14:18;2.47;;;1.00;;
18200;SDS011;9226;47.858;9.594;2023-01-10T14:16:44;8.97;;;1.40;;
18200;SDS011;9226;47.858;9.594;2023-01-10T14:19:26;5.97;;;1.17;;
18200;SDS011;9226;47.858;9.594;2023-01-10T14:21:56;4.77;;;1.10;;
18200;SDS011;9226;47.858;9.594;2023-01-10T14:26:49;1.87;;;1.20;;
18200;SDS011;9226;47.858;9.594;2023-01-10T14:29:17;6.07;;;1.10;;
18200;SDS011;9226;47.858;9.594;2023-01-10T14:31:44;3.93;;;0.83;;
18200;SDS011;9226;47.858;9.594;2023-01-10T14:34:15;8.20;;;1.27;;
18200;SDS011;9226;47.858;9.594;2023-01-10T14:36:48;4.53;;;0.90;;
18200;SDS011;9226;47.858;9.594;2023-01-10T14:39:17;1.77;;;1.03;;
18200;SDS011;9226;47.858;9.594;2023-01-10T14:41:44;2.37;;;1.17;;
18200;SDS011;9226;47.858;9.594;2023-01-10T14:44:23;4.37;;;1.40;;
18200;SDS011;9226;47.858;9.594;2023-01-10T14:46:55;8.17;;;1.60;;
18200;SDS011;9226;47.858;9.594;2023-01-10T14:49:26;10.60;;;2.70;;
18200;SDS011;9226;47.858;9.594;2023-01-10T14:52:16;10.33;;;2.00;;
18200;SDS011;9226;47.858;9.594;2023-01-10T14:54:47;3.83;;;1.40;;
18200;SDS011;9226;47.858;9.594;2023-01-10T14:57:38;6.83;;;2.03;;
18200;SDS011;9226;47.858;9.594;2023-01-10T15:00:05;10.50;;;3.17;;
18200;SDS011;9226;47.858;9.594;2023-01-10T15:02:43;5.97;;;2.10;;
18200;SDS011;9226;47.858;9.594;2023-01-10T15:05:17;5.93;;;2.27;;
18200;SDS011;9226;47.858;9.594;2023-01-10T15:07:45;7.83;;;2.20;;
18200;SDS011;9226;47.858;9.594;2023-01-10T15:10:30;4.93;;;1.90;;
18200;SDS011;9226;47.858;9.594;2023-01-10T15:13:03;2.20;;;1.57;;
18200;SDS011;9226;47.858;9.594;2023-01-10T15:15:31;4.10;;;1.40;;
18200;SDS011;9226;47.858;9.594;2023-01-10T15:17:59;5.60;;;1.47;;
18200;SDS011;9226;47.858;9.594;2023-01-10T15:20:26;3.43;;;1.40;;
18200;SDS011;9226;47.858;9.594;2023-01-10T15:22:58;1.70;;;1.17;;
18200;SDS011;9226;47.858;9.594;2023-01-10T15:28:05;4.83;;;1.67;;
18200;SDS011;9226;47.858;9.594;2023-01-10T15:30:40;6.10;;;1.73;;
18200;SDS011;9226;47.858;9.594;2023-01-10T15:33:10;4.07;;;2.07;;
18200;SDS011;9226;47.858;9.594;2023-01-10T15:35:38;12.03;;;3.40;;
18200;SDS011;9226;47.858;9.594;2023-01-10T15:38:08;9.43;;;2.27;;
18200;SDS011;9226;47.858;9.594;2023-01-10T15:40:37;2.97;;;1.60;;
18200;SDS011;9226;47.858;9.594;2023-01-10T15:45:47;13.43;;;2.53;;
18200;SDS011;9226;47.858;9.594;2023-01-10T15:53:54;5.03;;;1.97;;
18200;SDS011;9226;47.858;9.594;2023-01-10T15:57:13;9.43;;;1.80;;
18200;SDS011;9226;47.858;9.594;2023-01-10T15:59:27;3.67;;;1.57;;
18200;SDS011;9226;47.858;9.594;2023-01-10T16:04:40;9.20;;;1.30;;
18200;SDS011;9226;47.858;9.594;2023-01-10T16:07:22;4.40;;;0.97;;
18200;SDS011;9226;47.858;9.594;2023-01-10T16:09:55;3.70;;;1.00;;
18200;SDS011;9226;47.858;9.594;2023-01-10T16:12:33;8.57;;;1.57;;
18200;SDS011;9226;47.858;9.594;2023-01-10T16:15:19;6.63;;;2.17;;
18200;SDS011;9226;47.858;9.594;2023-01-10T16:17:50;10.47;;;2.97;;
18200;SDS011;9226;47.858;9.594;2023-01-10T16:20:17;12.33;;;4.13;;
18200;SDS011;9226;47.858;9.594;2023-01-10T16:22:45;18.23;;;5.00;;
18200;SDS011;9226;47.858;9.594;2023-01-10T16:25:16;11.17;;;5.13;;
18200;SDS011;9226;47.858;9.594;2023-01-10T16:27:45;15.50;;;5.63;;
18200;SDS011;9226;47.858;9.594;2023-01-10T16:30:31;11.70;;;4.13;;
18200;SDS011;9226;47.858;9.594;2023-01-10T16:33:17;5.37;;;2.27;;
18200;SDS011;9226;47.858;9.594;2023-01-10T16:35:47;8.77;;;2.23;;
18200;SDS011;9226;47.858;9.594;2023-01-10T16:38:15;7.67;;;2.80;;
18200;SDS011;9226;47.858;9.594;2023-01-10T16:43:55;6.40;;;2.70;;
18200;SDS011;9226;47.858;9.594;2023-01-10T16:46:20;6.60;;;2.73;;
18200;SDS011;9226;47.858;9.594;2023-01-10T16:48:46;7.77;;;3.47;;
18200;SDS011;9226;47.858;9.594;2023-01-10T16:51:26;6.27;;;2.90;;
18200;SDS011;9226;47.858;9.594;2023-01-10T16:53:54;11.10;;;2.90;;
18200;SDS011;9226;47.858;9.594;2023-01-10T16:56:20;8.10;;;3.83;;
18200;SDS011;9226;47.858;9.594;2023-01-10T16:58:47;11.73;;;4.90;;
18200;SDS011;9226;47.858;9.594;2023-01-10T17:01:18;13.00;;;5.10;;
18200;SDS011;9226;47.858;9.594;2023-01-10T17:03:49;12.50;;;5.57;;
18200;SDS011;9226;47.858;9.594;2023-01-10T17:06:15;13.77;;;4.97;;
18200;SDS011;9226;47.858;9.594;2023-01-10T17:08:42;6.17;;;2.90;;
18200;SDS011;9226;47.858;9.594;2023-01-10T17:11:12;5.43;;;2.37;;
18200;SDS011;9226;47.858;9.594;2023-01-10T17:13:42;5.23;;;2.87;;
18200;SDS011;9226;47.858;9.594;2023-01-10T17:16:08;13.70;;;3.03;;
18200;SDS011;9226;47.858;9.594;2023-01-10T17:18:34;11.33;;;3.80;;
18200;SDS011;9226;47.858;9.594;2023-01-10T17:20:59;7.47;;;3.50;;
18200;SDS011;9226;47.858;9.594;2023-01-10T17:23:25;6.03;;;3.07;;
18200;SDS011;9226;47.858;9.594;2023-01-10T17:25:58;3.70;;;1.90;;